sensor_id;sensor_type;location;lat;lon;timestamp;temperature;humidity
40556;DHT22;26250;45.422;11.100;2022-10-30T08:04:04;16.00;97.10
40556;DHT22;26250;45.422;11.100;2022-10-30T08:06:31;16.00;96.80
40556;DHT22;26250;45.422;11.100;2022-10-30T08:08:58;16.10;96.70
40556;DHT22;26250;45.422;11.100;2022-10-30T08:11:27;16.20;96.80
40556;DHT22;26250;45.422;11.100;2022-10-30T08:13:56;16.30;97.30
40556;DHT22;26250;45.422;11.100;2022-10-30T08:16:23;16.40;97.40
40556;DHT22;26250;45.422;11.100;2022-10-30T08:18:52;16.40;96.80
40556;DHT22;26250;45.422;11.100;2022-10-30T08:21:23;16.50;96.70
40556;DHT22;26250;45.422;11.100;2022-10-30T08:24:07;16.60;96.40
40556;DHT22;26250;45.422;11.100;2022-10-30T08:26:34;16.70;96.00
40556;DHT22;26250;45.422;11.100;2022-10-30T08:29:02;16.70;96.30
40556;DHT22;26250;45.422;11.100;2022-10-30T08:31:29;16.70;95.90
40556;DHT22;26250;45.422;11.100;2022-10-30T08:34:03;16.70;96.00
40556;DHT22;26250;45.422;11.100;2022-10-30T08:36:57;16.80;95.70
40556;DHT22;26250;45.422;11.100;2022-10-30T08:39:27;16.80;95.60
40556;DHT22;26250;45.422;11.100;2022-10-30T08:42:14;16.90;95.80
40556;DHT22;26250;45.422;11.100;2022-10-30T08:44:43;16.90;95.70
40556;DHT22;26250;45.422;11.100;2022-10-30T08:47:12;17.00;95.70
40556;DHT22;26250;45.422;11.100;2022-10-30T08:49:40;17.00;95.80
40556;DHT22;26250;45.422;11.100;2022-10-30T08:52:08;17.10;95.70
40556;DHT22;26250;45.422;11.100;2022-10-30T08:54:35;17.20;95.80
40556;DHT22;26250;45.422;11.100;2022-10-30T08:57:02;17.20;95.60
40556;DHT22;26250;45.422;11.100;2022-10-30T08:59:30;17.20;95.40
40556;DHT22;26250;45.422;11.100;2022-10-30T09:01:58;17.30;95.20
40556;DHT22;26250;45.422;11.100;2022-10-30T09:04:48;17.30;95.20
40556;DHT22;26250;45.422;11.100;2022-10-30T09:07:57;17.40;95.20
40556;DHT22;26250;45.422;11.100;2022-10-30T09:10:45;17.50;95.00
40556;DHT22;26250;45.422;11.100;2022-10-30T09:13:12;17.60;94.90
40556;DHT22;26250;45.422;11.100;2022-10-30T09:15:39;17.60;94.90
40556;DHT22;26250;45.422;11.100;2022-10-30T09:18:06;17.60;94.90
40556;DHT22;26250;45.422;11.100;2022-10-30T18:31:35;17.90;93.80
40556;DHT22;26250;45.422;11.100;2022-10-30T18:34:02;17.80;93.90
40556;DHT22;26250;45.422;11.100;2022-10-30T18:36:29;17.90;93.70
40556;DHT22;26250;45.422;11.100;2022-10-30T18:38:56;17.90;93.70
40556;DHT22;26250;45.422;11.100;2022-10-30T18:41:30;17.70;94.00
40556;DHT22;26250;45.422;11.100;2022-10-30T18:43:58;17.70;94.20
40556;DHT22;26250;45.422;11.100;2022-10-30T18:46:28;17.60;94.10
40556;DHT22;26250;45.422;11.100;2022-10-30T18:48:56;17.60;94.20
40556;DHT22;26250;45.422;11.100;2022-10-30T18:51:25;17.60;94.30
40556;DHT22;26250;45.422;11.100;2022-10-30T18:53:53;17.50;94.20
40556;DHT22;26250;45.422;11.100;2022-10-30T18:56:24;17.60;94.20
40556;DHT22;26250;45.422;11.100;2022-10-30T18:58:53;17.60;94.10
40556;DHT22;26250;45.422;11.100;2022-10-30T19:01:29;17.50;94.20
40556;DHT22;26250;45.422;11.100;2022-10-30T19:03:57;17.60;94.40
40556;DHT22;26250;45.422;11.100;2022-10-30T19:06:28;17.50;94.10
40556;DHT22;26250;45.422;11.100;2022-10-30T19:08:55;17.40;94.30
40556;DHT22;26250;45.422;11.100;2022-10-30T19:11:22;17.40;94.50
40556;DHT22;26250;45.422;11.100;2022-10-30T19:13:52;17.30;94.40
40556;DHT22;26250;45.422;11.100;2022-10-30T19:16:20;17.40;94.20
40556;DHT22;26250;45.422;11.100;2022-10-30T19:18:47;17.40;94.30
40556;DHT22;26250;45.422;11.100;2022-10-30T19:21:22;17.30;94.50
40556;DHT22;26250;45.422;11.100;2022-10-30T19:23:51;17.20;94.60
40556;DHT22;26250;45.422;11.100;2022-10-30T19:26:18;17.30;94.60
40556;DHT22;26250;45.422;11.100;2022-10-30T19:28:45;17.20;94.70
40556;DHT22;26250;45.422;11.100;2022-10-30T19:31:14;17.20;94.80
40556;DHT22;26250;45.422;11.100;2022-10-30T19:33:41;17.20;94.70
40556;DHT22;26250;45.422;11.100;2022-10-30T19:36:30;17.30;94.40
40556;DHT22;26250;45.422;11.100;2022-10-30T19:38:59;17.30;96.50
40556;DHT22;26250;45.422;11.100;2022-10-30T19:41:35;17.20;95.60
40556;DHT22;26250;45.422;11.100;2022-10-30T19:44:05;17.10;96.80
40556;DHT22;26250;45.422;11.100;2022-10-30T19:46:32;17.10;95.80
40556;DHT22;26250;45.422;11.100;2022-10-30T19:49:07;17.10;95.20
40556;DHT22;26250;45.422;11.100;2022-10-30T19:51:38;17.10;95.00
40556;DHT22;26250;45.422;11.100;2022-10-30T19:54:04;17.10;96.30
40556;DHT22;26250;45.422;11.100;2022-10-30T19:56:31;17.20;95.00
40556;DHT22;26250;45.422;11.100;2022-10-30T19:58:58;17.20;94.80
40556;DHT22;26250;45.422;11.100;2022-10-30T20:01:25;17.20;94.70
40556;DHT22;26250;45.422;11.100;2022-10-30T20:03:52;17.10;94.90
40556;DHT22;26250;45.422;11.100;2022-10-30T20:06:19;17.10;94.60
40556;DHT22;26250;45.422;11.100;2022-10-30T20:08:49;17.00;94.70
40556;DHT22;26250;45.422;11.100;2022-10-30T20:11:16;17.00;95.10
40556;DHT22;26250;45.422;11.100;2022-10-30T20:13:43;17.00;94.70
40556;DHT22;26250;45.422;11.100;2022-10-30T20:16:11;17.00;95.00
40556;DHT22;26250;45.422;11.100;2022-10-30T20:18:38;17.00;94.90
40556;DHT22;26250;45.422;11.100;2022-10-30T20:21:08;17.10;94.40
40556;DHT22;26250;45.422;11.100;2022-10-30T20:23:36;17.00;94.80
40556;DHT22;26250;45.422;11.100;2022-10-30T20:26:05;17.00;95.00
40556;DHT22;26250;45.422;11.100;2022-10-30T20:28:37;17.00;94.70
40556;DHT22;26250;45.422;11.100;2022-10-30T20:31:10;16.90;95.10
40556;DHT22;26250;45.422;11.100;2022-10-30T20:33:37;16.80;95.30
40556;DHT22;26250;45.422;11.100;2022-10-30T20:36:04;16.90;95.00
40556;DHT22;26250;45.422;11.100;2022-10-30T20:38:33;16.80;95.20
40556;DHT22;26250;45.422;11.100;2022-10-30T20:41:01;16.80;95.70
40556;DHT22;26250;45.422;11.100;2022-10-30T20:43:31;16.70;95.60
40556;DHT22;26250;45.422;11.100;2022-10-30T20:45:59;16.70;95.50
40556;DHT22;26250;45.422;11.100;2022-10-30T20:48:27;16.80;95.40
40556;DHT22;26250;45.422;11.100;2022-10-30T20:50:56;16.70;95.40
40556;DHT22;26250;45.422;11.100;2022-10-30T20:53:23;16.70;95.40
40556;DHT22;26250;45.422;11.100;2022-10-30T20:55:50;16.60;95.40
40556;DHT22;26250;45.422;11.100;2022-10-30T20:58:18;16.50;95.60
40556;DHT22;26250;45.422;11.100;2022-10-30T21:00:45;16.50;95.20
40556;DHT22;26250;45.422;11.100;2022-10-30T21:03:12;16.50;95.00
40556;DHT22;26250;45.422;11.100;2022-10-30T21:05:43;16.50;95.30
40556;DHT22;26250;45.422;11.100;2022-10-30T21:08:14;16.50;95.30
40556;DHT22;26250;45.422;11.100;2022-10-30T21:10:41;16.40;96.00
40556;DHT22;26250;45.422;11.100;2022-10-30T21:13:09;16.40;96.20
40556;DHT22;26250;45.422;11.100;2022-10-30T21:15:41;16.50;96.00
40556;DHT22;26250;45.422;11.100;2022-10-30T21:18:10;16.50;95.90
40556;DHT22;26250;45.422;11.100;2022-10-30T21:20:38;16.50;95.50
40556;DHT22;26250;45.422;11.100;2022-10-30T21:23:06;16.50;95.50
40556;DHT22;26250;45.422;11.100;2022-10-30T21:25:33;16.50;95.60
40556;DHT22;26250;45.422;11.100;2022-10-30T21:28:02;16.40;96.00
40556;DHT22;26250;45.422;11.100;2022-10-30T21:30:29;16.40;95.60
40556;DHT22;26250;45.422;11.100;2022-10-30T21:32:57;16.50;95.20
40556;DHT22;26250;45.422;11.100;2022-10-30T21:35:25;16.40;95.60
40556;DHT22;26250;45.422;11.100;2022-10-30T21:37:52;16.30;95.60
40556;DHT22;26250;45.422;11.100;2022-10-30T21:40:18;16.40;95.40
40556;DHT22;26250;45.422;11.100;2022-10-30T21:42:48;16.40;95.50
40556;DHT22;26250;45.422;11.100;2022-10-30T21:45:15;16.40;95.40
40556;DHT22;26250;45.422;11.100;2022-10-30T21:47:45;16.40;95.50
40556;DHT22;26250;45.422;11.100;2022-10-30T21:50:11;16.30;96.00
40556;DHT22;26250;45.422;11.100;2022-10-30T21:52:39;16.20;96.00
40556;DHT22;26250;45.422;11.100;2022-10-30T21:55:06;16.30;95.80
40556;DHT22;26250;45.422;11.100;2022-10-30T21:57:33;16.30;95.50
40556;DHT22;26250;45.422;11.100;2022-10-30T22:00:01;16.30;95.90
